sensor_id;sensor_type;location;lat;lon;timestamp;P1;durP1;ratioP1;P2;durP2;ratioP2
38427;SDS011;24211;49.980;19.776;2023-06-10T00:01:45;4.43;;;2.40;;
38427;SDS011;24211;49.980;19.776;2023-06-10T00:04:16;4.35;;;2.88;;
38427;SDS011;24211;49.980;19.776;2023-06-10T00:06:43;5.43;;;2.42;;
38427;SDS011;24211;49.980;19.776;2023-06-10T00:09:11;6.10;;;2.72;;
38427;SDS011;24211;49.980;19.776;2023-06-10T00:11:40;4.60;;;2.80;;
38427;SDS011;24211;49.980;19.776;2023-06-10T00:14:09;4.28;;;2.70;;
38427;SDS011;24211;49.980;19.776;2023-06-10T00:16:36;4.00;;;2.63;;
38427;SDS011;24211;49.980;19.776;2023-06-10T00:19:05;5.07;;;2.90;;
38427;SDS011;24211;49.980;19.776;2023-06-10T00:21:33;4.05;;;2.55;;
38427;SDS011;24211;49.980;19.776;2023-06-10T00:24:04;3.90;;;2.40;;
38427;SDS011;24211;49.980;19.776;2023-06-10T00:26:33;5.22;;;2.70;;
38427;SDS011;24211;49.980;19.776;2023-06-10T00:29:01;4.85;;;2.90;;
38427;SDS011;24211;49.980;19.776;2023-06-10T00:31:28;6.30;;;3.40;;
38427;SDS011;24211;49.980;19.776;2023-06-10T00:33:57;4.68;;;2.97;;
38427;SDS011;24211;49.980;19.776;2023-06-10T00:36:25;5.22;;;3.50;;
38427;SDS011;24211;49.980;19.776;2023-06-10T00:38:55;6.30;;;3.35;;
38427;SDS011;24211;49.980;19.776;2023-06-10T00:41:23;6.15;;;3.50;;
38427;SDS011;24211;49.980;19.776;2023-06-10T00:43:53;6.82;;;3.58;;
38427;SDS011;24211;49.980;19.776;2023-06-10T00:46:20;5.55;;;3.45;;
38427;SDS011;24211;49.980;19.776;2023-06-10T00:48:49;6.22;;;3.90;;
38427;SDS011;24211;49.980;19.776;2023-06-10T00:51:17;5.22;;;3.33;;
38427;SDS011;24211;49.980;19.776;2023-06-10T00:53:45;6.35;;;3.40;;
38427;SDS011;24211;49.980;19.776;2023-06-10T00:56:13;5.35;;;3.30;;
38427;SDS011;24211;49.980;19.776;2023-06-10T00:58:42;6.40;;;3.22;;
38427;SDS011;24211;49.980;19.776;2023-06-10T01:01:10;5.15;;;3.05;;
38427;SDS011;24211;49.980;19.776;2023-06-10T01:03:40;4.85;;;3.10;;
38427;SDS011;24211;49.980;19.776;2023-06-10T01:08:59;6.07;;;3.50;;
38427;SDS011;24211;49.980;19.776;2023-06-10T01:11:58;5.72;;;3.58;;
38427;SDS011;24211;49.980;19.776;2023-06-10T01:14:36;5.18;;;3.33;;
38427;SDS011;24211;49.980;19.776;2023-06-10T01:17:06;5.05;;;3.10;;
38427;SDS011;24211;49.980;19.776;2023-06-10T01:19:35;5.15;;;3.05;;
38427;SDS011;24211;49.980;19.776;2023-06-10T01:22:03;4.95;;;3.28;;
38427;SDS011;24211;49.980;19.776;2023-06-10T01:24:32;5.32;;;3.38;;
38427;SDS011;24211;49.980;19.776;2023-06-10T01:27:05;5.72;;;3.58;;
38427;SDS011;24211;49.980;19.776;2023-06-10T01:29:43;5.05;;;3.33;;
38427;SDS011;24211;49.980;19.776;2023-06-10T01:32:23;7.50;;;3.67;;
38427;SDS011;24211;49.980;19.776;2023-06-10T01:35:02;5.38;;;3.40;;
38427;SDS011;24211;49.980;19.776;2023-06-10T01:37:31;4.90;;;3.22;;
38427;SDS011;24211;49.980;19.776;2023-06-10T01:40:02;6.57;;;3.45;;
38427;SDS011;24211;49.980;19.776;2023-06-10T01:42:34;5.50;;;3.50;;
38427;SDS011;24211;49.980;19.776;2023-06-10T01:45:02;5.13;;;3.42;;
38427;SDS011;24211;49.980;19.776;2023-06-10T01:47:30;4.90;;;3.10;;
38427;SDS011;24211;49.980;19.776;2023-06-10T01:49:59;6.03;;;3.58;;
38427;SDS011;24211;49.980;19.776;2023-06-10T01:52:27;5.38;;;3.30;;
38427;SDS011;24211;49.980;19.776;2023-06-10T01:54:55;6.28;;;3.42;;
38427;SDS011;24211;49.980;19.776;2023-06-10T01:57:22;5.57;;;3.30;;
38427;SDS011;24211;49.980;19.776;2023-06-10T01:59:49;5.60;;;3.50;;
38427;SDS011;24211;49.980;19.776;2023-06-10T02:02:16;5.18;;;3.30;;
38427;SDS011;24211;49.980;19.776;2023-06-10T02:04:44;5.57;;;3.60;;
38427;SDS011;24211;49.980;19.776;2023-06-10T02:07:11;5.43;;;3.30;;
38427;SDS011;24211;49.980;19.776;2023-06-10T02:09:38;5.28;;;3.40;;
38427;SDS011;24211;49.980;19.776;2023-06-10T02:12:06;5.60;;;3.38;;
38427;SDS011;24211;49.980;19.776;2023-06-10T02:14:34;6.55;;;3.47;;
38427;SDS011;24211;49.980;19.776;2023-06-10T02:17:01;5.28;;;3.33;;
38427;SDS011;24211;49.980;19.776;2023-06-10T02:19:29;5.72;;;3.33;;
38427;SDS011;24211;49.980;19.776;2023-06-10T02:21:57;5.65;;;3.38;;
38427;SDS011;24211;49.980;19.776;2023-06-10T02:24:24;5.93;;;3.58;;
38427;SDS011;24211;49.980;19.776;2023-06-10T02:26:51;5.50;;;3.50;;
38427;SDS011;24211;49.980;19.776;2023-06-10T02:29:21;5.45;;;3.38;;
38427;SDS011;24211;49.980;19.776;2023-06-10T02:31:48;6.35;;;3.50;;
38427;SDS011;24211;49.980;19.776;2023-06-10T02:34:16;5.15;;;3.50;;
38427;SDS011;24211;49.980;19.776;2023-06-10T02:36:43;6.60;;;3.72;;
38427;SDS011;24211;49.980;19.776;2023-06-10T02:39:10;6.13;;;3.35;;
38427;SDS011;24211;49.980;19.776;2023-06-10T02:41:38;5.47;;;3.42;;
38427;SDS011;24211;49.980;19.776;2023-06-10T02:44:05;5.07;;;3.10;;
38427;SDS011;24211;49.980;19.776;2023-06-10T02:46:32;7.00;;;3.40;;
38427;SDS011;24211;49.980;19.776;2023-06-10T02:49:02;6.05;;;3.53;;
38427;SDS011;24211;49.980;19.776;2023-06-10T02:51:29;4.97;;;3.20;;
38427;SDS011;24211;49.980;19.776;2023-06-10T02:54:00;4.88;;;3.30;;
38427;SDS011;24211;49.980;19.776;2023-06-10T02:56:28;7.25;;;3.65;;
38427;SDS011;24211;49.980;19.776;2023-06-10T02:58:59;7.65;;;3.40;;
38427;SDS011;24211;49.980;19.776;2023-06-10T03:01:28;6.22;;;3.47;;
38427;SDS011;24211;49.980;19.776;2023-06-10T03:04:04;5.88;;;3.45;;
38427;SDS011;24211;49.980;19.776;2023-06-10T03:06:33;5.13;;;3.22;;
38427;SDS011;24211;49.980;19.776;2023-06-10T03:09:10;5.93;;;3.45;;
38427;SDS011;24211;49.980;19.776;2023-06-10T03:11:40;5.88;;;3.50;;
38427;SDS011;24211;49.980;19.776;2023-06-10T03:14:07;5.53;;;3.50;;
38427;SDS011;24211;49.980;19.776;2023-06-10T03:16:34;5.55;;;3.40;;
38427;SDS011;24211;49.980;19.776;2023-06-10T03:19:01;6.70;;;3.80;;
38427;SDS011;24211;49.980;19.776;2023-06-10T03:21:30;5.97;;;3.72;;
38427;SDS011;24211;49.980;19.776;2023-06-10T03:23:58;5.80;;;3.60;;
38427;SDS011;24211;49.980;19.776;2023-06-10T03:26:27;6.82;;;3.97;;
38427;SDS011;24211;49.980;19.776;2023-06-10T03:28:55;6.18;;;3.80;;
38427;SDS011;24211;49.980;19.776;2023-06-10T03:31:24;6.82;;;3.70;;
38427;SDS011;24211;49.980;19.776;2023-06-10T03:33:53;6.20;;;4.00;;
38427;SDS011;24211;49.980;19.776;2023-06-10T03:36:20;6.60;;;3.90;;
38427;SDS011;24211;49.980;19.776;2023-06-10T03:38:47;6.90;;;3.83;;
38427;SDS011;24211;49.980;19.776;2023-06-10T03:41:17;6.60;;;3.83;;
38427;SDS011;24211;49.980;19.776;2023-06-10T03:43:45;6.53;;;4.22;;
38427;SDS011;24211;49.980;19.776;2023-06-10T03:46:15;7.32;;;3.92;;
38427;SDS011;24211;49.980;19.776;2023-06-10T03:48:44;6.45;;;3.80;;
38427;SDS011;24211;49.980;19.776;2023-06-10T03:51:12;6.88;;;4.25;;
38427;SDS011;24211;49.980;19.776;2023-06-10T03:53:39;5.95;;;3.88;;
38427;SDS011;24211;49.980;19.776;2023-06-10T03:56:06;6.05;;;4.15;;
38427;SDS011;24211;49.980;19.776;2023-06-10T03:58:33;7.53;;;4.53;;
38427;SDS011;24211;49.980;19.776;2023-06-10T04:01:02;6.35;;;4.57;;
38427;SDS011;24211;49.980;19.776;2023-06-10T04:03:33;7.18;;;4.40;;
38427;SDS011;24211;49.980;19.776;2023-06-10T04:06:01;6.30;;;4.40;;
38427;SDS011;24211;49.980;19.776;2023-06-10T04:08:31;6.85;;;4.32;;
38427;SDS011;24211;49.980;19.776;2023-06-10T04:10:59;7.82;;;4.57;;
38427;SDS011;24211;49.980;19.776;2023-06-10T04:13:27;6.25;;;4.30;;
38427;SDS011;24211;49.980;19.776;2023-06-10T04:15:56;7.28;;;4.45;;
38427;SDS011;24211;49.980;19.776;2023-06-10T04:18:25;6.90;;;4.45;;
38427;SDS011;24211;49.980;19.776;2023-06-10T04:20:55;7.13;;;4.40;;
38427;SDS011;24211;49.980;19.776;2023-06-10T04:23:22;6.90;;;4.47;;
38427;SDS011;24211;49.980;19.776;2023-06-10T04:25:50;6.47;;;4.50;;
38427;SDS011;24211;49.980;19.776;2023-06-10T04:28:18;6.15;;;4.35;;
38427;SDS011;24211;49.980;19.776;2023-06-10T04:30:45;6.88;;;4.53;;
38427;SDS011;24211;49.980;19.776;2023-06-10T04:33:14;7.10;;;4.72;;
38427;SDS011;24211;49.980;19.776;2023-06-10T04:35:41;6.78;;;4.22;;
38427;SDS011;24211;49.980;19.776;2023-06-10T04:38:12;6.97;;;4.82;;
38427;SDS011;24211;49.980;19.776;2023-06-10T04:40:41;9.88;;;5.43;;
38427;SDS011;24211;49.980;19.776;2023-06-10T04:43:10;8.75;;;5.30;;
38427;SDS011;24211;49.980;19.776;2023-06-10T04:45:38;8.55;;;5.30;;
38427;SDS011;24211;49.980;19.776;2023-06-10T04:48:06;7.72;;;5.40;;
38427;SDS011;24211;49.980;19.776;2023-06-10T04:50:34;9.63;;;5.88;;
38427;SDS011;24211;49.980;19.776;2023-06-10T04:53:01;8.90;;;6.00;;
38427;SDS011;24211;49.980;19.776;2023-06-10T04:55:29;9.85;;;6.43;;
38427;SDS011;24211;49.980;19.776;2023-06-10T04:57:56;10.43;;;6.20;;
38427;SDS011;24211;49.980;19.776;2023-06-10T05:00:23;10.05;;;6.53;;
38427;SDS011;24211;49.980;19.776;2023-06-10T05:02:51;11.88;;;7.35;;
38427;SDS011;24211;49.980;19.776;2023-06-10T05:05:18;11.38;;;6.82;;
38427;SDS011;24211;49.980;19.776;2023-06-10T05:07:46;10.98;;;7.32;;
38427;SDS011;24211;49.980;19.776;2023-06-10T05:10:14;11.35;;;7.22;;
38427;SDS011;24211;49.980;19.776;2023-06-10T05:12:41;17.50;;;11.45;;
38427;SDS011;24211;49.980;19.776;2023-06-10T05:15:09;17.38;;;11.68;;
38427;SDS011;24211;49.980;19.776;2023-06-10T05:17:37;17.83;;;12.07;;
38427;SDS011;24211;49.980;19.776;2023-06-10T05:20:04;13.57;;;8.88;;
38427;SDS011;24211;49.980;19.776;2023-06-10T05:22:33;13.10;;;8.10;;
38427;SDS011;24211;49.980;19.776;2023-06-10T05:25:00;17.90;;;10.27;;
38427;SDS011;24211;49.980;19.776;2023-06-10T05:27:28;18.88;;;12.15;;
38427;SDS011;24211;49.980;19.776;2023-06-10T05:29:55;16.83;;;11.20;;
38427;SDS011;24211;49.980;19.776;2023-06-10T05:32:23;18.58;;;11.82;;
38427;SDS011;24211;49.980;19.776;2023-06-10T05:34:50;16.02;;;11.23;;
38427;SDS011;24211;49.980;19.776;2023-06-10T05:37:17;13.18;;;8.25;;
38427;SDS011;24211;49.980;19.776;2023-06-10T05:39:45;15.60;;;9.90;;
38427;SDS011;24211;49.980;19.776;2023-06-10T05:42:13;13.55;;;8.50;;
38427;SDS011;24211;49.980;19.776;2023-06-10T05:44:40;13.48;;;9.00;;
38427;SDS011;24211;49.980;19.776;2023-06-10T05:47:07;23.30;;;13.68;;
38427;SDS011;24211;49.980;19.776;2023-06-10T05:49:34;20.17;;;11.82;;
38427;SDS011;24211;49.980;19.776;2023-06-10T05:52:01;17.65;;;10.40;;
38427;SDS011;24211;49.980;19.776;2023-06-10T05:54:29;13.57;;;8.65;;
38427;SDS011;24211;49.980;19.776;2023-06-10T05:56:56;14.02;;;8.55;;
38427;SDS011;24211;49.980;19.776;2023-06-10T05:59:23;19.40;;;13.00;;
38427;SDS011;24211;49.980;19.776;2023-06-10T06:01:50;21.15;;;13.20;;
38427;SDS011;24211;49.980;19.776;2023-06-10T06:04:17;22.15;;;13.02;;
38427;SDS011;24211;49.980;19.776;2023-06-10T06:06:44;17.80;;;10.65;;
38427;SDS011;24211;49.980;19.776;2023-06-10T06:09:11;15.40;;;9.75;;
38427;SDS011;24211;49.980;19.776;2023-06-10T06:11:39;26.35;;;12.48;;
38427;SDS011;24211;49.980;19.776;2023-06-10T06:14:07;19.27;;;12.30;;
38427;SDS011;24211;49.980;19.776;2023-06-10T06:16:35;17.95;;;11.38;;
38427;SDS011;24211;49.980;19.776;2023-06-10T06:19:02;18.15;;;11.63;;
38427;SDS011;24211;49.980;19.776;2023-06-10T06:21:29;18.20;;;11.13;;
38427;SDS011;24211;49.980;19.776;2023-06-10T06:23:56;14.50;;;9.98;;
38427;SDS011;24211;49.980;19.776;2023-06-10T06:26:25;15.60;;;9.77;;
38427;SDS011;24211;49.980;19.776;2023-06-10T06:28:52;14.88;;;9.18;;
38427;SDS011;24211;49.980;19.776;2023-06-10T06:31:19;17.42;;;9.90;;
38427;SDS011;24211;49.980;19.776;2023-06-10T06:33:46;15.57;;;9.73;;
38427;SDS011;24211;49.980;19.776;2023-06-10T06:36:13;16.13;;;9.07;;
38427;SDS011;24211;49.980;19.776;2023-06-10T06:38:40;17.42;;;9.07;;
38427;SDS011;24211;49.980;19.776;2023-06-10T06:41:08;11.73;;;8.10;;
38427;SDS011;24211;49.980;19.776;2023-06-10T06:43:35;13.00;;;8.00;;
38427;SDS011;24211;49.980;19.776;2023-06-10T06:46:09;14.73;;;8.30;;
38427;SDS011;24211;49.980;19.776;2023-06-10T06:48:36;17.88;;;8.73;;
38427;SDS011;24211;49.980;19.776;2023-06-10T06:51:04;11.63;;;7.35;;
38427;SDS011;24211;49.980;19.776;2023-06-10T06:53:31;14.35;;;8.98;;
38427;SDS011;24211;49.980;19.776;2023-06-10T06:56:05;13.25;;;8.20;;
38427;SDS011;24211;49.980;19.776;2023-06-10T06:58:32;12.15;;;8.02;;
38427;SDS011;24211;49.980;19.776;2023-06-10T07:00:59;15.20;;;8.80;;
38427;SDS011;24211;49.980;19.776;2023-06-10T07:03:27;13.65;;;9.02;;
38427;SDS011;24211;49.980;19.776;2023-06-10T07:05:54;13.95;;;8.70;;
38427;SDS011;24211;49.980;19.776;2023-06-10T07:08:22;15.18;;;8.98;;
38427;SDS011;24211;49.980;19.776;2023-06-10T07:10:49;12.40;;;7.88;;
38427;SDS011;24211;49.980;19.776;2023-06-10T07:13:16;14.75;;;7.60;;
38427;SDS011;24211;49.980;19.776;2023-06-10T07:15:43;13.88;;;7.75;;
38427;SDS011;24211;49.980;19.776;2023-06-10T07:18:10;12.80;;;8.00;;
38427;SDS011;24211;49.980;19.776;2023-06-10T07:20:37;12.25;;;7.57;;
38427;SDS011;24211;49.980;19.776;2023-06-10T07:23:04;11.05;;;8.27;;
38427;SDS011;24211;49.980;19.776;2023-06-10T07:25:32;12.52;;;8.32;;
38427;SDS011;24211;49.980;19.776;2023-06-10T07:27:59;12.32;;;7.53;;
38427;SDS011;24211;49.980;19.776;2023-06-10T07:30:26;12.98;;;7.53;;
38427;SDS011;24211;49.980;19.776;2023-06-10T07:32:54;12.75;;;8.20;;
38427;SDS011;24211;49.980;19.776;2023-06-10T07:35:22;11.70;;;8.07;;
38427;SDS011;24211;49.980;19.776;2023-06-10T07:37:50;10.80;;;7.57;;
38427;SDS011;24211;49.980;19.776;2023-06-10T07:40:17;12.25;;;7.82;;
38427;SDS011;24211;49.980;19.776;2023-06-10T07:42:44;14.48;;;8.00;;
38427;SDS011;24211;49.980;19.776;2023-06-10T07:45:11;12.27;;;7.20;;
38427;SDS011;24211;49.980;19.776;2023-06-10T07:47:38;10.63;;;7.00;;
38427;SDS011;24211;49.980;19.776;2023-06-10T07:50:06;10.27;;;7.13;;
38427;SDS011;24211;49.980;19.776;2023-06-10T07:52:33;9.77;;;7.20;;
38427;SDS011;24211;49.980;19.776;2023-06-10T07:55:01;8.65;;;6.03;;
38427;SDS011;24211;49.980;19.776;2023-06-10T07:57:28;13.05;;;7.68;;
38427;SDS011;24211;49.980;19.776;2023-06-10T07:59:56;10.48;;;6.80;;
38427;SDS011;24211;49.980;19.776;2023-06-10T08:02:26;10.57;;;6.50;;
38427;SDS011;24211;49.980;19.776;2023-06-10T08:04:54;11.52;;;7.60;;
38427;SDS011;24211;49.980;19.776;2023-06-10T08:07:21;11.50;;;6.63;;
38427;SDS011;24211;49.980;19.776;2023-06-10T08:09:49;12.32;;;7.18;;
38427;SDS011;24211;49.980;19.776;2023-06-10T08:12:16;10.18;;;7.07;;
38427;SDS011;24211;49.980;19.776;2023-06-10T08:14:44;8.20;;;5.38;;
38427;SDS011;24211;49.980;19.776;2023-06-10T08:17:11;9.75;;;5.90;;
38427;SDS011;24211;49.980;19.776;2023-06-10T08:19:38;9.95;;;5.35;;
38427;SDS011;24211;49.980;19.776;2023-06-10T08:22:06;9.10;;;6.00;;
38427;SDS011;24211;49.980;19.776;2023-06-10T08:24:33;9.07;;;6.32;;
38427;SDS011;24211;49.980;19.776;2023-06-10T08:27:00;12.70;;;6.45;;
38427;SDS011;24211;49.980;19.776;2023-06-10T08:29:27;9.07;;;5.60;;
38427;SDS011;24211;49.980;19.776;2023-06-10T08:31:55;10.07;;;6.88;;
38427;SDS011;24211;49.980;19.776;2023-06-10T08:34:23;8.20;;;5.68;;
38427;SDS011;24211;49.980;19.776;2023-06-10T08:36:50;10.02;;;6.43;;
38427;SDS011;24211;49.980;19.776;2023-06-10T08:39:22;10.80;;;6.65;;
38427;SDS011;24211;49.980;19.776;2023-06-10T08:44:54;9.23;;;5.93;;
38427;SDS011;24211;49.980;19.776;2023-06-10T08:47:23;9.95;;;6.45;;
38427;SDS011;24211;49.980;19.776;2023-06-10T08:49:52;8.73;;;6.45;;
38427;SDS011;24211;49.980;19.776;2023-06-10T08:52:23;10.68;;;6.57;;
38427;SDS011;24211;49.980;19.776;2023-06-10T08:55:00;7.43;;;5.53;;
38427;SDS011;24211;49.980;19.776;2023-06-10T08:57:35;9.77;;;6.28;;
38427;SDS011;24211;49.980;19.776;2023-06-10T09:00:04;8.07;;;5.53;;
38427;SDS011;24211;49.980;19.776;2023-06-10T09:02:33;9.30;;;5.70;;
38427;SDS011;24211;49.980;19.776;2023-06-10T09:05:02;8.27;;;5.38;;
38427;SDS011;24211;49.980;19.776;2023-06-10T09:07:30;8.75;;;5.15;;
38427;SDS011;24211;49.980;19.776;2023-06-10T09:10:03;8.02;;;5.50;;
38427;SDS011;24211;49.980;19.776;2023-06-10T09:12:34;9.90;;;6.30;;
38427;SDS011;24211;49.980;19.776;2023-06-10T09:15:02;7.65;;;5.70;;
38427;SDS011;24211;49.980;19.776;2023-06-10T09:17:29;8.27;;;6.40;;
38427;SDS011;24211;49.980;19.776;2023-06-10T09:19:59;9.73;;;6.50;;
38427;SDS011;24211;49.980;19.776;2023-06-10T09:22:26;9.45;;;5.40;;
38427;SDS011;24211;49.980;19.776;2023-06-10T09:27:32;8.18;;;5.28;;
38427;SDS011;24211;49.980;19.776;2023-06-10T09:29:59;8.30;;;5.20;;
38427;SDS011;24211;49.980;19.776;2023-06-10T09:32:26;9.10;;;5.32;;
38427;SDS011;24211;49.980;19.776;2023-06-10T09:34:54;7.50;;;5.20;;
38427;SDS011;24211;49.980;19.776;2023-06-10T09:37:24;9.10;;;5.75;;
38427;SDS011;24211;49.980;19.776;2023-06-10T09:40:02;7.28;;;4.80;;
38427;SDS011;24211;49.980;19.776;2023-06-10T09:42:35;10.05;;;5.18;;
38427;SDS011;24211;49.980;19.776;2023-06-10T09:45:05;8.85;;;5.53;;
38427;SDS011;24211;49.980;19.776;2023-06-10T09:47:34;8.50;;;5.40;;
38427;SDS011;24211;49.980;19.776;2023-06-10T09:50:01;7.40;;;5.00;;
38427;SDS011;24211;49.980;19.776;2023-06-10T09:52:29;7.15;;;4.90;;
38427;SDS011;24211;49.980;19.776;2023-06-10T09:55:00;8.07;;;5.30;;
38427;SDS011;24211;49.980;19.776;2023-06-10T10:00:06;7.70;;;4.68;;
38427;SDS011;24211;49.980;19.776;2023-06-10T10:02:52;8.05;;;4.47;;
38427;SDS011;24211;49.980;19.776;2023-06-10T10:05:21;5.85;;;4.18;;
38427;SDS011;24211;49.980;19.776;2023-06-10T10:07:50;6.30;;;4.47;;
38427;SDS011;24211;49.980;19.776;2023-06-10T10:10:19;6.38;;;4.20;;
38427;SDS011;24211;49.980;19.776;2023-06-10T10:12:49;6.90;;;4.50;;
38427;SDS011;24211;49.980;19.776;2023-06-10T10:15:23;7.25;;;4.50;;
38427;SDS011;24211;49.980;19.776;2023-06-10T10:18:05;8.95;;;5.20;;
38427;SDS011;24211;49.980;19.776;2023-06-10T10:20:38;7.32;;;5.45;;
38427;SDS011;24211;49.980;19.776;2023-06-10T10:23:15;6.25;;;4.55;;
38427;SDS011;24211;49.980;19.776;2023-06-10T10:25:52;7.80;;;5.07;;
38427;SDS011;24211;49.980;19.776;2023-06-10T10:28:23;6.53;;;4.72;;
38427;SDS011;24211;49.980;19.776;2023-06-10T10:30:57;8.50;;;5.47;;
38427;SDS011;24211;49.980;19.776;2023-06-10T10:33:42;7.72;;;5.05;;
38427;SDS011;24211;49.980;19.776;2023-06-10T10:36:23;7.65;;;4.65;;
38427;SDS011;24211;49.980;19.776;2023-06-10T10:38:50;6.45;;;4.78;;
38427;SDS011;24211;49.980;19.776;2023-06-10T10:41:18;7.53;;;5.05;;
38427;SDS011;24211;49.980;19.776;2023-06-10T10:43:47;8.63;;;4.60;;
38427;SDS011;24211;49.980;19.776;2023-06-10T10:46:18;7.93;;;4.90;;
38427;SDS011;24211;49.980;19.776;2023-06-10T10:48:49;9.63;;;5.13;;
38427;SDS011;24211;49.980;19.776;2023-06-10T10:51:22;6.97;;;4.50;;
38427;SDS011;24211;49.980;19.776;2023-06-10T10:54:09;7.00;;;4.90;;
38427;SDS011;24211;49.980;19.776;2023-06-10T10:56:39;7.07;;;5.03;;
38427;SDS011;24211;49.980;19.776;2023-06-10T10:59:06;8.73;;;4.82;;
38427;SDS011;24211;49.980;19.776;2023-06-10T11:01:43;9.50;;;4.68;;
38427;SDS011;24211;49.980;19.776;2023-06-10T11:04:13;6.35;;;4.13;;
38427;SDS011;24211;49.980;19.776;2023-06-10T11:06:54;5.95;;;3.95;;
38427;SDS011;24211;49.980;19.776;2023-06-10T11:09:32;7.30;;;4.18;;
38427;SDS011;24211;49.980;19.776;2023-06-10T11:11:59;7.65;;;3.97;;
38427;SDS011;24211;49.980;19.776;2023-06-10T11:14:28;5.75;;;3.50;;
38427;SDS011;24211;49.980;19.776;2023-06-10T11:16:57;5.80;;;3.55;;
38427;SDS011;24211;49.980;19.776;2023-06-10T11:19:33;5.93;;;3.58;;
38427;SDS011;24211;49.980;19.776;2023-06-10T11:22:04;5.70;;;3.22;;
38427;SDS011;24211;49.980;19.776;2023-06-10T11:24:34;6.18;;;3.53;;
38427;SDS011;24211;49.980;19.776;2023-06-10T11:27:14;7.13;;;3.50;;
38427;SDS011;24211;49.980;19.776;2023-06-10T11:32:34;5.32;;;3.38;;
38427;SDS011;24211;49.980;19.776;2023-06-10T11:35:02;5.57;;;3.22;;
38427;SDS011;24211;49.980;19.776;2023-06-10T11:37:30;6.30;;;3.30;;
38427;SDS011;24211;49.980;19.776;2023-06-10T11:39:58;5.60;;;3.70;;
38427;SDS011;24211;49.980;19.776;2023-06-10T11:42:26;5.15;;;3.28;;
38427;SDS011;24211;49.980;19.776;2023-06-10T11:44:54;8.10;;;3.85;;
38427;SDS011;24211;49.980;19.776;2023-06-10T11:47:21;6.13;;;3.75;;
38427;SDS011;24211;49.980;19.776;2023-06-10T11:49:56;6.72;;;3.45;;
38427;SDS011;24211;49.980;19.776;2023-06-10T11:52:26;7.10;;;3.45;;
38427;SDS011;24211;49.980;19.776;2023-06-10T11:55:00;6.50;;;3.63;;
38427;SDS011;24211;49.980;19.776;2023-06-10T11:57:27;6.18;;;3.38;;
38427;SDS011;24211;49.980;19.776;2023-06-10T11:59:55;5.72;;;3.90;;
38427;SDS011;24211;49.980;19.776;2023-06-10T12:02:22;6.40;;;3.83;;
38427;SDS011;24211;49.980;19.776;2023-06-10T12:04:50;7.55;;;4.38;;
38427;SDS011;24211;49.980;19.776;2023-06-10T12:07:18;7.05;;;4.53;;
38427;SDS011;24211;49.980;19.776;2023-06-10T12:09:47;7.22;;;3.85;;
38427;SDS011;24211;49.980;19.776;2023-06-10T12:12:37;9.30;;;4.10;;
38427;SDS011;24211;49.980;19.776;2023-06-10T12:15:05;5.65;;;3.60;;
38427;SDS011;24211;49.980;19.776;2023-06-10T12:20:04;6.18;;;3.65;;
38427;SDS011;24211;49.980;19.776;2023-06-10T12:22:36;7.18;;;3.83;;
38427;SDS011;24211;49.980;19.776;2023-06-10T12:25:10;4.90;;;3.10;;
38427;SDS011;24211;49.980;19.776;2023-06-10T12:27:39;5.10;;;3.30;;
38427;SDS011;24211;49.980;19.776;2023-06-10T12:30:20;5.85;;;3.28;;
38427;SDS011;24211;49.980;19.776;2023-06-10T12:32:50;5.85;;;2.85;;
38427;SDS011;24211;49.980;19.776;2023-06-10T12:35:20;4.40;;;2.75;;
38427;SDS011;24211;49.980;19.776;2023-06-10T12:37:55;5.05;;;2.85;;
38427;SDS011;24211;49.980;19.776;2023-06-10T12:40:34;4.60;;;3.00;;
38427;SDS011;24211;49.980;19.776;2023-06-10T12:43:06;4.30;;;2.88;;
38427;SDS011;24211;49.980;19.776;2023-06-10T12:45:37;6.05;;;3.10;;
38427;SDS011;24211;49.980;19.776;2023-06-10T12:48:10;4.75;;;2.80;;
38427;SDS011;24211;49.980;19.776;2023-06-10T12:50:44;3.67;;;2.42;;
38427;SDS011;24211;49.980;19.776;2023-06-10T12:53:19;5.00;;;2.80;;
38427;SDS011;24211;49.980;19.776;2023-06-10T12:55:50;4.78;;;2.80;;
38427;SDS011;24211;49.980;19.776;2023-06-10T12:58:19;5.57;;;3.25;;
38427;SDS011;24211;49.980;19.776;2023-06-10T13:00:49;5.35;;;3.05;;
38427;SDS011;24211;49.980;19.776;2023-06-10T13:03:19;4.85;;;2.80;;
38427;SDS011;24211;49.980;19.776;2023-06-10T13:05:47;5.63;;;3.28;;
38427;SDS011;24211;49.980;19.776;2023-06-10T13:08:15;5.50;;;3.55;;
38427;SDS011;24211;49.980;19.776;2023-06-10T13:10:42;5.55;;;3.03;;
38427;SDS011;24211;49.980;19.776;2023-06-10T13:13:09;4.95;;;2.72;;
38427;SDS011;24211;49.980;19.776;2023-06-10T13:15:37;6.03;;;3.50;;
38427;SDS011;24211;49.980;19.776;2023-06-10T13:18:09;4.85;;;2.83;;
38427;SDS011;24211;49.980;19.776;2023-06-10T13:20:37;5.63;;;3.05;;
38427;SDS011;24211;49.980;19.776;2023-06-10T13:23:05;9.55;;;3.40;;
38427;SDS011;24211;49.980;19.776;2023-06-10T13:25:33;5.97;;;3.05;;
38427;SDS011;24211;49.980;19.776;2023-06-10T13:28:01;4.43;;;2.90;;
38427;SDS011;24211;49.980;19.776;2023-06-10T13:30:29;5.22;;;2.83;;
38427;SDS011;24211;49.980;19.776;2023-06-10T13:32:56;4.40;;;2.88;;
38427;SDS011;24211;49.980;19.776;2023-06-10T13:35:24;4.70;;;2.63;;
38427;SDS011;24211;49.980;19.776;2023-06-10T13:37:51;6.20;;;3.00;;
38427;SDS011;24211;49.980;19.776;2023-06-10T13:40:18;4.40;;;3.00;;
38427;SDS011;24211;49.980;19.776;2023-06-10T13:42:46;5.47;;;3.13;;
38427;SDS011;24211;49.980;19.776;2023-06-10T13:45:17;5.90;;;3.33;;
38427;SDS011;24211;49.980;19.776;2023-06-10T13:47:44;5.82;;;3.00;;
38427;SDS011;24211;49.980;19.776;2023-06-10T13:50:12;6.10;;;2.92;;
38427;SDS011;24211;49.980;19.776;2023-06-10T13:52:39;6.78;;;3.33;;
38427;SDS011;24211;49.980;19.776;2023-06-10T13:55:07;6.05;;;2.72;;
38427;SDS011;24211;49.980;19.776;2023-06-10T13:57:35;4.88;;;2.50;;
38427;SDS011;24211;49.980;19.776;2023-06-10T14:00:02;4.13;;;2.17;;
38427;SDS011;24211;49.980;19.776;2023-06-10T14:02:30;5.10;;;2.40;;
38427;SDS011;24211;49.980;19.776;2023-06-10T14:04:58;4.43;;;2.55;;
38427;SDS011;24211;49.980;19.776;2023-06-10T14:07:25;3.85;;;2.45;;
38427;SDS011;24211;49.980;19.776;2023-06-10T14:09:52;5.70;;;2.38;;
38427;SDS011;24211;49.980;19.776;2023-06-10T14:12:20;3.80;;;2.30;;
38427;SDS011;24211;49.980;19.776;2023-06-10T14:14:47;3.92;;;2.30;;
38427;SDS011;24211;49.980;19.776;2023-06-10T14:17:14;3.60;;;2.25;;
38427;SDS011;24211;49.980;19.776;2023-06-10T14:19:41;8.70;;;2.83;;
38427;SDS011;24211;49.980;19.776;2023-06-10T14:22:08;4.93;;;2.70;;
38427;SDS011;24211;49.980;19.776;2023-06-10T14:24:35;4.90;;;2.50;;
38427;SDS011;24211;49.980;19.776;2023-06-10T14:27:04;3.97;;;2.40;;
38427;SDS011;24211;49.980;19.776;2023-06-10T14:29:31;4.05;;;2.42;;
38427;SDS011;24211;49.980;19.776;2023-06-10T14:32:00;5.93;;;2.35;;
38427;SDS011;24211;49.980;19.776;2023-06-10T14:34:27;5.30;;;2.65;;
38427;SDS011;24211;49.980;19.776;2023-06-10T14:36:56;4.10;;;2.30;;
38427;SDS011;24211;49.980;19.776;2023-06-10T14:39:23;4.55;;;2.58;;
38427;SDS011;24211;49.980;19.776;2023-06-10T14:41:51;4.00;;;2.30;;
38427;SDS011;24211;49.980;19.776;2023-06-10T14:44:19;4.45;;;2.65;;
38427;SDS011;24211;49.980;19.776;2023-06-10T14:46:46;5.45;;;2.65;;
38427;SDS011;24211;49.980;19.776;2023-06-10T14:49:14;5.10;;;2.38;;
38427;SDS011;24211;49.980;19.776;2023-06-10T14:51:41;4.57;;;2.40;;
38427;SDS011;24211;49.980;19.776;2023-06-10T14:54:09;4.93;;;2.50;;
38427;SDS011;24211;49.980;19.776;2023-06-10T14:56:36;5.07;;;2.40;;
38427;SDS011;24211;49.980;19.776;2023-06-10T14:59:04;5.65;;;2.58;;